Crown Princess — ZCDM6 — position and weather

sailwx.info

Track history (hours):
 
Tides and Currents Weather Stations Pressure Air Temp Water Temp Dewpoint Dewpoint Depression Visibility Wind Speed Wind Dir Waves Ship Positions

Crown Princess

Last reported at 2017-Jan-13 22:15 UTC. Time now 2017-Jan-18 01:34 UTC.
Position S 54°58' W 068°52'.

Type: Ship. MMSI: 310500000.

Date/timePositionNaut miles runAvg speedWind from/ knotsBaromVisibWave heightAir tempDewpointWater temp
2017-Jan-13 22:15S 54°58' W 068°52'1216.9
2017-Jan-13 21:33S 54°54' W 068°33'1717.0
2017-Jan-13 20:33S 54°53' W 068°03'9 9.0
2017-Jan-13 19:31S 54°49' W 068°18'0 0.0
2017-Jan-13 18:33S 54°49' W 068°18'0 0.0
2017-Jan-13 17:33S 54°49' W 068°18'0 0.0
2017-Jan-13 16:32S 54°49' W 068°18'0 0.0
2017-Jan-13 15:32S 54°49' W 068°18'0 0.0
2017-Jan-13 14:32S 54°49' W 068°18'0 0.0
2017-Jan-13 13:31S 54°49' W 068°18'0 0.0
2017-Jan-13 12:28S 54°49' W 068°18'0 0.0
2017-Jan-13 11:33S 54°49' W 068°18'0 0.0
2017-Jan-13 10:33S 54°49' W 068°18'1 0.9
2017-Jan-13 09:33S 54°49' W 068°17'1414.2
2017-Jan-13 08:34S 54°53' W 067°53'1211.6
2017-Jan-13 07:34S 54°55' W 067°33'0 0.3
2017-Jan-13 06:33S 54°55' W 067°33'1312.8
2017-Jan-13 05:33S 54°57' W 067°11'  
2017-Jan-09 02:33S 34°45' W 057°37'1111.4
2017-Jan-09 01:33S 34°43' W 057°51'1212.4
2017-Jan-09 00:33S 34°39' W 058°05'1312.2
2017-Jan-08 23:30S 34°36' W 058°20'1 0.1
2017-Jan-08 03:09S 34°35' W 058°22'1610.1
2017-Jan-08 01:33S 34°40' W 058°03'9 8.8
2017-Jan-08 00:31S 34°43' W 057°52'0 0.1
2017-Jan-07 23:31S 34°43' W 057°52'0 0.1
2017-Jan-07 22:33S 34°43' W 057°52'0 0.0
2017-Jan-07 21:33S 34°43' W 057°52'0 0.0
2017-Jan-07 20:32S 34°43' W 057°52'0 0.0
2017-Jan-07 19:32S 34°43' W 057°52'0 0.0
2017-Jan-07 18:31S 34°43' W 057°52'0 0.0
2017-Jan-07 17:34S 34°43' W 057°52'6 6.4
2017-Jan-07 16:34S 34°44' W 057°45'1412.6
2017-Jan-07 15:28S 34°48' W 057°28'2913.5
2017-Jan-07 13:21S 35°08' W 057°03'911.6
2017-Jan-07 12:32S 35°10' W 056°52'1212.4
2017-Jan-07 11:32S 35°10' W 056°37'11413.4
2017-Jan-07 03:00S 35°00' W 054°18'16114.7 020 / 341010.4 19.814.721.0
2017-Jan-06 16:00S 33°06' W 052°00'27220.9 140 / 161019.7 20.710.223.0
2017-Jan-06 03:00S 29°18' W 049°06'63 7.4 280 / 181012.5 23.521.725.0
2017-Jan-05 18:31S 28°49' W 048°03'6719.0
2017-Jan-05 15:00S 27°54' W 047°18'9425.5 310 / 231010.510.8 27.524.927.0
2017-Jan-05 11:18S 26°40' W 046°12'2321.9
2017-Jan-05 10:15S 26°22' W 045°56'6222.3
2017-Jan-05 07:27S 25°33' W 045°14'4322.9
2017-Jan-05 05:33S 24°58' W 044°45'2322.9
2017-Jan-05 04:34S 24°40' W 044°30'5220.1
2017-Jan-05 02:00S 24°00' W 043°54'6224.6 090 / 121012.1 27.524.727.0
2017-Jan-04 23:28S 23°10' W 043°14'1516.9
2017-Jan-04 22:33S 22°55' W 043°08'3 2.6
2017-Jan-04 21:28S 22°54' W 043°11'0 0.0
2017-Jan-04 19:33S 22°54' W 043°11'0 0.0
2017-Jan-04 18:33S 22°54' W 043°11'0 0.0
2017-Jan-04 17:26S 22°54' W 043°11'0 0.0
2017-Jan-04 16:32S 22°54' W 043°11'0 0.0
2017-Jan-04 14:31S 22°54' W 043°11'0 0.0
2017-Jan-04 12:30S 22°54' W 043°11'0 0.0
2017-Jan-04 10:29S 22°54' W 043°11'0 0.0
2017-Jan-04 09:29S 22°54' W 043°11'0 0.0
2017-Jan-04 08:10S 22°54' W 043°11'0 0.0
2017-Jan-04 07:28S 22°54' W 043°11'3 3.2
2017-Jan-04 06:33S 22°55' W 043°08'1414.4
2017-Jan-04 05:33S 23°09' W 043°14'5014.1
2017-Jan-04 02:00S 23°48' W 043°48'   040 / 131013.4 26.525.127.0
Track history (hours):
 
Tides and Currents Weather Stations Pressure Air Temp Water Temp Dewpoint Dewpoint Depression Visibility Wind Speed Wind Dir Waves Ship Positions

Crown Princess

Last reported at 2017-Jan-13 22:15 UTC. Time now 2017-Jan-18 01:34 UTC.
Position S 54°58' W 068°52'.

Type: Ship. MMSI: 310500000.

Date/timePositionNaut miles runAvg speedWind from/ knotsBaromVisibWave heightAir tempDewpointWater temp
2017-Jan-13 22:15S 54°58' W 068°52'1216.9
2017-Jan-13 21:33S 54°54' W 068°33'1717.0
2017-Jan-13 20:33S 54°53' W 068°03'9 9.0
2017-Jan-13 19:31S 54°49' W 068°18'0 0.0
2017-Jan-13 18:33S 54°49' W 068°18'0 0.0
2017-Jan-13 17:33S 54°49' W 068°18'0 0.0
2017-Jan-13 16:32S 54°49' W 068°18'0 0.0
2017-Jan-13 15:32S 54°49' W 068°18'0 0.0
2017-Jan-13 14:32S 54°49' W 068°18'0 0.0
2017-Jan-13 13:31S 54°49' W 068°18'0 0.0
2017-Jan-13 12:28S 54°49' W 068°18'0 0.0
2017-Jan-13 11:33S 54°49' W 068°18'0 0.0
2017-Jan-13 10:33S 54°49' W 068°18'1 0.9
2017-Jan-13 09:33S 54°49' W 068°17'1414.2
2017-Jan-13 08:34S 54°53' W 067°53'1211.6
2017-Jan-13 07:34S 54°55' W 067°33'0 0.3
2017-Jan-13 06:33S 54°55' W 067°33'1312.8
2017-Jan-13 05:33S 54°57' W 067°11'  
2017-Jan-09 02:33S 34°45' W 057°37'1111.4
2017-Jan-09 01:33S 34°43' W 057°51'1212.4
2017-Jan-09 00:33S 34°39' W 058°05'1312.2
2017-Jan-08 23:30S 34°36' W 058°20'1 0.1
2017-Jan-08 03:09S 34°35' W 058°22'1610.1
2017-Jan-08 01:33S 34°40' W 058°03'9 8.8
2017-Jan-08 00:31S 34°43' W 057°52'0 0.1
2017-Jan-07 23:31S 34°43' W 057°52'0 0.1
2017-Jan-07 22:33S 34°43' W 057°52'0 0.0
2017-Jan-07 21:33S 34°43' W 057°52'0 0.0
2017-Jan-07 20:32S 34°43' W 057°52'0 0.0
2017-Jan-07 19:32S 34°43' W 057°52'0 0.0
2017-Jan-07 18:31S 34°43' W 057°52'0 0.0
2017-Jan-07 17:34S 34°43' W 057°52'6 6.4
2017-Jan-07 16:34S 34°44' W 057°45'1412.6
2017-Jan-07 15:28S 34°48' W 057°28'2913.5
2017-Jan-07 13:21S 35°08' W 057°03'911.6
2017-Jan-07 12:32S 35°10' W 056°52'1212.4
2017-Jan-07 11:32S 35°10' W 056°37'11413.4
2017-Jan-07 03:00S 35°00' W 054°18'16114.7 020 / 341010.4 19.814.721.0
2017-Jan-06 16:00S 33°06' W 052°00'27220.9 140 / 161019.7 20.710.223.0
2017-Jan-06 03:00S 29°18' W 049°06'63 7.4 280 / 181012.5 23.521.725.0
2017-Jan-05 18:31S 28°49' W 048°03'6719.0
2017-Jan-05 15:00S 27°54' W 047°18'9425.5 310 / 231010.510.8 27.524.927.0
2017-Jan-05 11:18S 26°40' W 046°12'2321.9
2017-Jan-05 10:15S 26°22' W 045°56'6222.3
2017-Jan-05 07:27S 25°33' W 045°14'4322.9
2017-Jan-05 05:33S 24°58' W 044°45'2322.9
2017-Jan-05 04:34S 24°40' W 044°30'5220.1
2017-Jan-05 02:00S 24°00' W 043°54'6224.6 090 / 121012.1 27.524.727.0
2017-Jan-04 23:28S 23°10' W 043°14'1516.9
2017-Jan-04 22:33S 22°55' W 043°08'3 2.6
2017-Jan-04 21:28S 22°54' W 043°11'0 0.0
2017-Jan-04 19:33S 22°54' W 043°11'0 0.0
2017-Jan-04 18:33S 22°54' W 043°11'0 0.0
2017-Jan-04 17:26S 22°54' W 043°11'0 0.0
2017-Jan-04 16:32S 22°54' W 043°11'0 0.0
2017-Jan-04 14:31S 22°54' W 043°11'0 0.0
2017-Jan-04 12:30S 22°54' W 043°11'0 0.0
2017-Jan-04 10:29S 22°54' W 043°11'0 0.0
2017-Jan-04 09:29S 22°54' W 043°11'0 0.0
2017-Jan-04 08:10S 22°54' W 043°11'0 0.0
2017-Jan-04 07:28S 22°54' W 043°11'3 3.2
2017-Jan-04 06:33S 22°55' W 043°08'1414.4
2017-Jan-04 05:33S 23°09' W 043°14'5014.1
2017-Jan-04 02:00S 23°48' W 043°48'   040 / 131013.4 26.525.127.0

Dump ship's entire track history